»·PEaware :: SWA635 KPHX-KSNA

SWA635 :: KPHX-KSNA

FLIGHT INFORMATION

Flight Status: Arrived
Operator:
Southwest Airlines
More flights by this operator :: More flights under this callsign
Pilot: Michael C. (27126)
Aircraft: BOEING 737-800
(B738)
More flights by this aircraft type
Origin: KPHX Phoenix Sky Harbor Intl
United States
Destination: KSNA John Wayne-Orange Co
United States
More flights between these airports :: More routes between these airports
Route: +KEENS2 HRRBR EMLLD WTTCH DSNEE4
File this flight plan on PilotEdge
Remarks: RMK / SIMBRIEF
Altitude:
(Current/Filed)
32,000ft
Speed:
(Current/Filed)
447kts
Departed: 11-Feb-20 06:31 PM
Arrived: 11-Feb-20 07:27 PM
Distance/Time
Traveled:
293nm/0:56
Distance/Time
To Go:
Arrived

Flight Plot

Page will automatically refresh every two minutes.

Flight plan parsing failed; only flown route is shown


Map Options




Map Legend


Flown Route
Filed Route
Departure Airport
Arrival Airport
Navaid (VOR, NDB)
Fix

Horizontal Profiles

Position Reports

Time Latitude Longitude Heading Altitude Ground
Speed
11-Feb-20 18:08 33.434293 -111.999886 90 1129ft 0kts
11-Feb-20 18:09 33.434293 -111.999886 90 1129ft 0kts
11-Feb-20 18:10 33.434293 -111.999886 90 1129ft 0kts
11-Feb-20 18:11 33.434293 -111.999886 90 1129ft 0kts
11-Feb-20 18:12 33.434293 -111.999886 90 1129ft 0kts
11-Feb-20 18:13 33.434293 -111.999886 90 1129ft 0kts
11-Feb-20 18:14 33.434293 -111.999886 90 1129ft 0kts
11-Feb-20 18:15 33.434293 -111.999886 90 1129ft 0kts
11-Feb-20 18:16 33.434293 -111.999886 90 1129ft 0kts
11-Feb-20 18:17 33.434293 -111.999886 90 1129ft 0kts
11-Feb-20 18:18 33.434293 -111.999886 90 1129ft 0kts
11-Feb-20 18:19 33.434293 -111.999886 90 1129ft 0kts
11-Feb-20 18:20 33.434293 -111.999960 92 1129ft 2kts
11-Feb-20 18:21 33.434428 -112.000519 153 1129ft 1kts
11-Feb-20 18:22 33.434459 -112.000539 149 1129ft 0kts
11-Feb-20 18:23 33.433866 -112.000352 179 1129ft 0kts
11-Feb-20 18:24 33.432843 -112.001768 269 1128ft 16kts
11-Feb-20 18:25 33.432889 -112.008258 270 1132ft 19kts
11-Feb-20 18:26 33.432888 -112.014926 270 1126ft 19kts
11-Feb-20 18:27 33.432893 -112.021618 270 1119ft 19kts
11-Feb-20 18:28 33.432772 -112.026788 221 1116ft 5kts
11-Feb-20 18:29 33.432250 -112.026959 182 1116ft 10kts
11-Feb-20 18:30 33.431114 -112.019931 90 1120ft 108kts
11-Feb-20 18:31 33.430289 -111.959142 91 3049ft 223kts
11-Feb-20 18:32 33.430498 -111.881087 87 6440ft 242kts
11-Feb-20 18:33 33.399192 -111.820819 185 9708ft 264kts
11-Feb-20 18:34 33.354464 -111.886263 263 12624ft 274kts
11-Feb-20 18:35 33.360858 -111.981768 279 14430ft 324kts
11-Feb-20 18:36 33.376460 -112.098779 283 16198ft 371kts
11-Feb-20 18:37 33.394953 -112.222436 283 18690ft 385kts
11-Feb-20 18:38 33.413598 -112.348418 283 20927ft 397kts
11-Feb-20 18:39 33.433272 -112.482285 284 23049ft 408kts
11-Feb-20 18:40 33.449133 -112.618409 276 24938ft 421kts
11-Feb-20 18:41 33.452972 -112.758423 280 26556ft 430kts
11-Feb-20 18:42 33.473405 -112.900338 287 28126ft 435kts
11-Feb-20 18:43 33.498719 -113.042718 290 29567ft 441kts
11-Feb-20 18:44 33.525080 -113.186098 290 31042ft 442kts
11-Feb-20 18:45 33.551385 -113.328816 291 32046ft 439kts
11-Feb-20 18:46 33.577094 -113.468770 291 32054ft 436kts
11-Feb-20 18:47 33.603163 -113.611002 291 32057ft 438kts
11-Feb-20 18:48 33.622567 -113.716243 290 32062ft 432kts
11-Feb-20 18:49 33.645087 -113.829400 296 32062ft 433kts
11-Feb-20 18:50 33.687462 -113.956966 301 32060ft 425kts
11-Feb-20 18:51 33.727901 -114.065909 301 32060ft 424kts
11-Feb-20 18:52 33.755400 -114.165625 293 32061ft 434kts
11-Feb-20 18:53 33.780188 -114.337293 286 32058ft 442kts
11-Feb-20 18:54 33.798909 -114.495898 286 32058ft 442kts
11-Feb-20 18:55 33.812084 -114.609327 286 32060ft 444kts
11-Feb-20 18:56 33.823635 -114.709918 286 32057ft 443kts
11-Feb-20 18:57 33.835360 -114.812889 286 32059ft 441kts
11-Feb-20 18:58 33.847519 -114.920224 286 32058ft 443kts
11-Feb-20 18:59 33.859398 -115.029925 286 32058ft 442kts
11-Feb-20 19:00 33.871305 -115.138854 286 32057ft 438kts
11-Feb-20 19:01 33.884378 -115.257755 287 32049ft 435kts
11-Feb-20 19:02 33.896185 -115.365594 287 31919ft 430kts
11-Feb-20 19:03 33.907826 -115.472750 286 29391ft 434kts
11-Feb-20 19:04 33.921859 -115.603718 283 25807ft 445kts
11-Feb-20 19:05 33.927431 -115.764600 280 24294ft 431kts
11-Feb-20 19:06 33.935088 -115.958743 283 24325ft 390kts
11-Feb-20 19:07 33.952683 -116.101874 289 24335ft 383kts
11-Feb-20 19:08 33.957276 -116.230634 273 24340ft 399kts
11-Feb-20 19:09 33.944204 -116.362248 270 24189ft 401kts
11-Feb-20 19:10 33.928445 -116.495027 269 21864ft 391kts
11-Feb-20 19:11 33.908685 -116.651797 267 19035ft 386kts
11-Feb-20 19:12 33.886029 -116.838463 268 15250ft 380kts
11-Feb-20 19:13 33.867064 -117.012142 266 12096ft 330kts
11-Feb-20 19:14 33.854905 -117.122010 265 11500ft 324kts
11-Feb-20 19:15 33.843363 -117.225156 265 10468ft 285kts
11-Feb-20 19:16 33.833405 -117.314119 265 9495ft 273kts
11-Feb-20 19:17 33.823643 -117.400085 265 8175ft 253kts
11-Feb-20 19:18 33.808092 -117.480230 251 7590ft 242kts
11-Feb-20 19:19 33.797132 -117.552936 294 7056ft 231kts
11-Feb-20 19:20 33.819701 -117.624806 291 5920ft 230kts
11-Feb-20 19:21 33.842410 -117.695843 291 4562ft 235kts
11-Feb-20 19:22 33.830183 -117.768697 218 3010ft 240kts
11-Feb-20 19:23 33.778489 -117.803535 208 2939ft 181kts
11-Feb-20 19:24 33.736160 -117.831164 206 1469ft 159kts
11-Feb-20 19:25 33.699462 -117.853792 206 506ft 141kts
11-Feb-20 19:26 33.669199 -117.872903 207 67ft 27kts
11-Feb-20 19:28 33.667980 -117.871973 44 67ft 12kts
11-Feb-20 19:29 33.671575 -117.868519 33 66ft 16kts
11-Feb-20 19:30 33.675217 -117.865782 29 66ft 17kts
11-Feb-20 19:31 33.677643 -117.863669 114 66ft 4kts

Navigation Log

Ident Type
Flight plan parsing failed, navigation log unavailable